createdAt,value
2023-04-16T00:02:31.397Z,10.49
2023-04-16T00:05:34.398Z,10.49
2023-04-16T00:08:37.542Z,10.49
2023-04-16T00:11:40.246Z,10.48
2023-04-16T00:14:43.882Z,10.47
2023-04-16T00:17:46.591Z,10.46
2023-04-16T00:21:31.210Z,10.41
2023-04-16T00:24:33.829Z,10.30
2023-04-16T00:27:36.629Z,10.31
2023-04-16T00:30:45.411Z,10.25
2023-04-16T00:33:48.096Z,10.23
2023-04-16T00:36:50.760Z,10.19
2023-04-16T00:39:53.402Z,10.15
2023-04-16T00:42:56.087Z,10.14
2023-04-16T00:46:18.508Z,10.18
2023-04-16T00:49:21.300Z,10.22
2023-04-16T00:52:24.586Z,10.22
2023-04-16T00:55:27.597Z,10.23
2023-04-16T00:58:30.586Z,10.26
2023-04-16T01:01:33.271Z,10.27
2023-04-16T01:04:40.839Z,10.30
2023-04-16T01:07:43.523Z,10.29
2023-04-16T01:10:46.698Z,10.30
2023-04-16T01:13:49.335Z,10.33
2023-04-16T01:16:51.895Z,10.34
2023-04-16T01:23:40.594Z,10.18
2023-04-16T01:26:43.186Z,10.13
2023-04-16T01:29:59.353Z,10.12
2023-04-16T01:33:02.087Z,10.06
2023-04-16T01:36:13.381Z,10.02
2023-04-16T01:39:16.647Z,9.97
2023-04-16T01:42:26.411Z,9.95
2023-04-16T01:45:29.070Z,9.95
2023-04-16T01:48:31.639Z,9.97
2023-04-16T01:51:34.260Z,9.98
2023-04-16T01:54:36.833Z,9.98
2023-04-16T01:57:39.670Z,9.99
2023-04-16T02:00:42.262Z,10.01
2023-04-16T02:03:45.287Z,10.01
2023-04-16T02:06:48.215Z,9.99
2023-04-16T02:09:53.910Z,9.96
2023-04-16T02:13:10.432Z,9.93
2023-04-16T02:16:13.101Z,9.90
2023-04-16T02:19:16.270Z,9.88
2023-04-16T02:22:18.892Z,9.86
2023-04-16T02:25:22.420Z,9.82
2023-04-16T02:28:25.020Z,9.78
2023-04-16T02:31:28.816Z,9.77
2023-04-16T02:34:31.558Z,9.75
2023-04-16T02:37:34.344Z,9.73
2023-04-16T02:40:37.337Z,9.67
2023-04-16T02:43:40.010Z,9.67
2023-04-16T02:46:42.637Z,9.68
2023-04-16T02:49:45.359Z,9.72
2023-04-16T02:52:48.659Z,9.76
2023-04-16T02:55:55.355Z,9.77
2023-04-16T02:58:57.998Z,9.79
2023-04-16T03:02:00.760Z,9.80
2023-04-16T03:05:04.125Z,9.81
2023-04-16T03:08:07.215Z,9.83
2023-04-16T03:11:09.761Z,9.82
2023-04-16T03:14:12.381Z,9.80
2023-04-16T03:17:14.989Z,9.80
2023-04-16T03:20:33.629Z,9.82
2023-04-16T03:23:36.540Z,9.83
2023-04-16T03:26:39.221Z,9.81
2023-04-16T03:29:41.856Z,9.75
2023-04-16T03:32:44.452Z,9.67
2023-04-16T03:35:57.334Z,9.65
2023-04-16T03:38:59.924Z,9.64
2023-04-16T03:42:03.482Z,9.61
2023-04-16T03:45:11.873Z,9.60
2023-04-16T03:48:14.496Z,9.64
2023-04-16T03:51:17.145Z,9.69
2023-04-16T03:54:22.066Z,9.72
2023-04-16T03:57:25.458Z,9.74
2023-04-16T04:00:28.003Z,9.76
2023-04-16T04:03:31.194Z,9.79
2023-04-16T04:06:33.897Z,9.81
2023-04-16T04:09:36.548Z,9.83
2023-04-16T04:12:39.159Z,9.82
2023-04-16T04:15:41.762Z,9.83
2023-04-16T04:18:44.634Z,9.84
2023-04-16T04:21:54.546Z,9.88
2023-04-16T04:24:57.142Z,9.89
2023-04-16T04:27:59.785Z,9.89
2023-04-16T04:31:02.386Z,9.88
2023-04-16T04:34:05.031Z,9.90
2023-04-16T04:37:07.768Z,9.93
2023-04-16T04:40:10.995Z,9.98
2023-04-16T04:43:13.664Z,10.01
2023-04-16T04:46:16.297Z,10.04
2023-04-16T04:49:18.866Z,10.07
2023-04-16T04:52:21.443Z,10.11
2023-04-16T04:55:24.296Z,10.13
2023-04-16T04:58:28.646Z,10.17
2023-04-16T05:01:31.653Z,10.18
2023-04-16T05:04:34.277Z,10.21
2023-04-16T05:07:36.972Z,10.22
2023-04-16T05:10:39.527Z,10.25
2023-04-16T05:13:54.496Z,10.27
2023-04-16T05:16:57.222Z,10.28
2023-04-16T05:20:00.744Z,10.31
2023-04-16T05:23:32.139Z,10.36
2023-04-16T05:26:34.771Z,10.34
2023-04-16T05:29:42.104Z,10.30
2023-04-16T05:32:44.905Z,10.26
2023-04-16T05:35:47.489Z,10.29
2023-04-16T05:38:50.115Z,10.32
2023-04-16T05:41:53.169Z,10.25
2023-04-16T05:44:55.901Z,10.29
2023-04-16T05:47:58.524Z,10.33
2023-04-16T05:51:02.808Z,10.38
2023-04-16T05:54:05.387Z,10.42
2023-04-16T05:57:08.069Z,10.50
2023-04-16T06:00:11.040Z,10.54
2023-04-16T06:03:13.995Z,10.57
2023-04-16T06:06:16.675Z,10.60
2023-04-16T06:09:19.256Z,10.64
2023-04-16T06:12:21.831Z,10.69
2023-04-16T06:15:24.401Z,10.72
2023-04-16T06:18:27.003Z,10.73
2023-04-16T06:21:29.827Z,10.76
2023-04-16T06:24:32.490Z,10.83
2023-04-16T06:27:35.078Z,10.89
2023-04-16T06:30:37.701Z,10.95
2023-04-16T06:33:40.720Z,10.99
2023-04-16T06:36:43.371Z,11.03
2023-04-16T06:39:51.207Z,11.07
2023-04-16T06:42:54.038Z,11.08
2023-04-16T06:45:56.685Z,11.11
2023-04-16T06:48:59.393Z,11.14
2023-04-16T06:52:03.786Z,11.16
2023-04-16T06:55:09.856Z,11.19
2023-04-16T06:58:12.616Z,11.26
2023-04-16T07:01:15.356Z,11.28
2023-04-16T07:04:18.069Z,11.30
2023-04-16T07:07:21.038Z,11.35
2023-04-16T07:10:23.801Z,11.29
2023-04-16T07:13:26.549Z,11.26
2023-04-16T07:16:29.277Z,11.23
2023-04-16T07:19:32.887Z,11.19
2023-04-16T07:22:35.968Z,11.17
2023-04-16T07:25:38.608Z,11.03
2023-04-16T07:28:41.411Z,11.06
2023-04-16T07:31:45.436Z,11.04
2023-04-16T07:34:48.254Z,11.09
2023-04-16T07:37:50.948Z,11.13
2023-04-16T07:40:53.716Z,11.15
2023-04-16T07:43:56.633Z,11.05
2023-04-16T07:46:59.379Z,10.97
2023-04-16T07:50:02.098Z,10.96
2023-04-16T07:53:07.603Z,10.94
2023-04-16T07:56:10.476Z,10.98
2023-04-16T07:59:21.872Z,11.05
2023-04-16T08:02:26.576Z,11.11
2023-04-16T08:05:29.450Z,11.15
2023-04-16T08:08:32.213Z,11.16
2023-04-16T08:11:35.243Z,11.27
2023-04-16T08:14:37.878Z,11.28
2023-04-16T08:17:44.749Z,11.10
2023-04-16T08:20:48.097Z,10.91
2023-04-16T08:23:51.803Z,10.81
2023-04-16T08:27:17.895Z,10.83
2023-04-16T08:30:22.445Z,10.94
2023-04-16T08:33:25.945Z,11.07
2023-04-16T08:36:43.610Z,11.20
2023-04-16T08:40:00.014Z,11.31
2023-04-16T08:43:10.319Z,11.43
2023-04-16T08:46:13.696Z,11.51
2023-04-16T08:49:20.563Z,11.44
2023-04-16T08:52:23.970Z,11.52
2023-04-16T08:55:35.984Z,11.66
2023-04-16T08:58:42.822Z,11.80
2023-04-16T09:01:46.713Z,11.77
2023-04-16T09:04:51.820Z,11.84
2023-04-16T09:07:54.872Z,11.93
2023-04-16T09:10:57.861Z,12.14
2023-04-16T09:14:01.105Z,12.22
2023-04-16T09:17:06.553Z,12.31
2023-04-16T09:20:11.080Z,12.37
2023-04-16T09:23:13.855Z,12.42
2023-04-16T09:26:16.904Z,12.42
2023-04-16T09:29:39.570Z,12.39
2023-04-16T09:32:42.322Z,12.34
2023-04-16T09:35:52.750Z,12.29
2023-04-16T09:38:57.520Z,12.32
2023-04-16T09:42:00.982Z,12.27
2023-04-16T09:45:06.053Z,12.14
2023-04-16T09:48:09.034Z,12.05
2023-04-16T09:51:11.724Z,12.02
2023-04-16T09:54:14.517Z,12.02
2023-04-16T09:57:24.960Z,12.02
2023-04-16T10:00:29.694Z,11.96
2023-04-16T10:03:34.825Z,11.94
2023-04-16T10:06:37.849Z,11.94
2023-04-16T10:09:40.922Z,12.01
2023-04-16T10:12:43.847Z,12.04
2023-04-16T10:15:46.770Z,12.04
2023-04-16T10:18:49.560Z,12.02
2023-04-16T10:21:52.658Z,12.01
2023-04-16T10:24:56.175Z,12.05
2023-04-16T10:27:59.584Z,12.11
2023-04-16T10:31:05.666Z,12.22
2023-04-16T10:34:10.135Z,12.31
2023-04-16T10:37:13.113Z,12.33
2023-04-16T10:40:29.211Z,12.39
2023-04-16T10:43:39.124Z,12.40
2023-04-16T10:46:54.980Z,12.34
2023-04-16T10:49:58.342Z,12.38
2023-04-16T10:53:22.733Z,12.40
2023-04-16T10:56:27.758Z,12.46
2023-04-16T10:59:32.306Z,12.39
2023-04-16T11:02:35.268Z,12.31
2023-04-16T11:05:47.143Z,12.17
2023-04-16T11:08:55.004Z,12.14
2023-04-16T11:12:12.868Z,12.16
2023-04-16T11:15:17.202Z,12.21
2023-04-16T11:18:20.243Z,12.27
2023-04-16T11:21:23.629Z,12.30
2023-04-16T11:24:30.920Z,12.25
2023-04-16T11:27:43.933Z,12.25
2023-04-16T11:30:49.246Z,12.29
2023-04-16T11:33:51.959Z,12.37
2023-04-16T11:36:54.713Z,12.37
2023-04-16T11:39:57.414Z,12.30
2023-04-16T11:43:05.237Z,12.33
2023-04-16T11:46:24.005Z,12.27
2023-04-16T11:49:30.321Z,12.31
2023-04-16T11:52:33.944Z,12.36
2023-04-16T11:55:45.562Z,12.46
2023-04-16T11:59:09.227Z,12.50
2023-04-16T12:02:14.329Z,12.57
2023-04-16T12:05:39.164Z,12.65
2023-04-16T12:08:54.904Z,12.54
2023-04-16T12:12:02.725Z,12.63
2023-04-16T12:15:09.098Z,12.75
2023-04-16T12:18:16.365Z,12.91
2023-04-16T12:21:20.678Z,13.02
2023-04-16T12:24:32.637Z,12.98
2023-04-16T12:27:54.300Z,12.83
2023-04-16T12:30:57.793Z,12.68
2023-04-16T12:34:03.698Z,12.68
2023-04-16T12:37:11.050Z,12.64
2023-04-16T12:40:13.869Z,12.51
2023-04-16T12:43:17.045Z,12.56
2023-04-16T12:46:19.874Z,12.64
2023-04-16T12:49:26.667Z,12.61
2023-04-16T12:52:37.177Z,12.58
2023-04-16T12:55:39.868Z,12.67
2023-04-16T12:58:44.615Z,12.69
2023-04-16T13:01:48.750Z,12.68
2023-04-16T13:32:02.427Z,13.30
2023-04-16T13:32:17.016Z,13.17
2023-04-16T13:35:19.827Z,13.08
2023-04-16T13:38:29.015Z,13.02
2023-04-16T13:46:37.467Z,12.63
2023-04-16T15:30:33.089Z,13.49
2023-04-16T15:37:47.741Z,12.59
2023-04-16T15:41:03.057Z,12.42
2023-04-16T15:44:22.784Z,12.35
2023-04-16T15:47:49.859Z,12.32
2023-04-16T15:51:07.206Z,12.32
2023-04-16T15:54:19.064Z,12.32
2023-04-16T15:57:21.737Z,12.31
2023-04-16T16:00:24.681Z,12.34
2023-04-16T16:03:27.601Z,12.34
2023-04-16T16:06:31.604Z,12.34
2023-04-16T16:09:36.658Z,12.29
2023-04-16T16:12:40.730Z,12.37
2023-04-16T16:15:46.839Z,12.48
2023-04-16T16:18:49.524Z,12.60
2023-04-16T16:21:52.105Z,12.69
2023-04-16T16:24:56.489Z,12.78
2023-04-16T16:27:59.583Z,12.85
2023-04-16T16:31:03.909Z,12.90
2023-04-16T16:34:06.575Z,12.89
2023-04-16T16:37:33.075Z,12.89
2023-04-16T16:40:38.117Z,12.82
2023-04-16T16:43:40.947Z,12.83
2023-04-16T16:46:43.664Z,12.85
2023-04-16T16:49:46.481Z,12.86
2023-04-16T16:52:50.241Z,12.84
2023-04-16T16:55:52.914Z,12.78
2023-04-16T16:58:56.103Z,12.74
2023-04-16T17:02:00.897Z,12.77
2023-04-16T17:09:42.080Z,12.68
2023-04-16T17:22:15.899Z,12.57
2023-04-16T19:50:29.124Z,13.38
2023-04-16T19:53:34.210Z,12.96
2023-04-16T19:56:46.055Z,12.77
2023-04-16T20:00:00.475Z,12.57
2023-04-16T20:03:04.464Z,12.45
2023-04-16T20:06:08.123Z,12.37
2023-04-16T20:09:12.542Z,12.28
2023-04-16T20:12:21.273Z,12.21
2023-04-16T20:15:24.506Z,12.11
2023-04-16T20:18:28.953Z,12.05
2023-04-16T20:21:32.132Z,11.99
2023-04-16T20:24:34.854Z,11.96
2023-04-16T20:27:39.193Z,11.93
2023-04-16T20:30:42.154Z,11.89
2023-04-16T20:33:44.910Z,11.85
2023-04-16T20:36:50.140Z,11.80
2023-04-16T20:39:54.299Z,11.77
2023-04-16T20:42:59.957Z,11.76
2023-04-16T20:46:03.191Z,11.75
2023-04-16T20:49:07.721Z,11.74
2023-04-16T20:52:10.520Z,11.72
2023-04-16T20:55:13.256Z,11.71
2023-04-16T20:58:17.116Z,11.69
2023-04-16T21:01:20.760Z,11.69
2023-04-16T21:04:23.737Z,11.66
2023-04-16T21:07:27.533Z,11.64
2023-04-16T21:10:31.052Z,11.66
2023-04-16T21:13:33.795Z,11.66
2023-04-16T21:16:36.557Z,11.67
2023-04-16T21:19:43.765Z,11.65
2023-04-16T21:22:46.522Z,11.63
2023-04-16T21:25:49.190Z,11.65
2023-04-16T21:28:54.565Z,11.65
2023-04-16T21:31:57.990Z,11.63
2023-04-16T21:35:00.973Z,11.60
2023-04-16T21:38:03.649Z,11.58
2023-04-16T21:41:08.887Z,11.57
2023-04-16T21:44:11.633Z,11.59
2023-04-16T21:47:17.507Z,11.59
2023-04-16T21:50:23.945Z,11.57
2023-04-16T21:53:34.128Z,11.54
2023-04-16T21:56:37.463Z,11.53
2023-04-16T21:59:41.006Z,11.49
2023-04-16T22:02:46.231Z,11.51
2023-04-16T22:05:52.690Z,11.52
2023-04-16T22:08:59.008Z,11.49
2023-04-16T22:12:02.160Z,11.52
2023-04-16T22:15:07.476Z,11.52
2023-04-16T22:18:10.759Z,11.49
2023-04-16T22:21:14.087Z,11.48
2023-04-16T22:24:20.961Z,11.48
2023-04-16T22:27:29.685Z,11.47
2023-04-16T22:30:35.132Z,11.46
2023-04-16T22:33:39.043Z,11.43
2023-04-16T22:36:48.442Z,11.40
2023-04-16T22:39:51.854Z,11.37
2023-04-16T22:42:55.100Z,11.37
2023-04-16T22:46:08.586Z,11.36
2023-04-16T22:54:42.193Z,11.26
